KOSC/OSC METAR and TAF weather

Enter ICAO airport designator
Station Type Date Time Source
KOSC METAR 2021/09/23 23:35 UTC NOAA

KOSC 232335Z AUTO 33008KT 7SM -RA SCT016 BKN029 OVC050 12/12 A2971 RMK AO2 T01170117 P0005


Station Type Date Time Source
KOSC Decoded METAR 2021/09/23 23:35 UTC NOAA

Oscoda, Oscoda-Wurtsmith Airport, MI, United States (KOSC) 44-27N 083-22W
Sep 23, 2021 - 07:35 PM EDT / 2021.09.23 2335 UTC
Wind: from the NNW (330 degrees) at 9 MPH (8 KT):0
Visibility: 7 mile(s):0
Sky conditions: overcast
Weather: light rain
Precipitation last hour: 0.05 inches
Temperature: 53.1 F (11.7 C)
Dew Point: 53.1 F (11.7 C)
Relative Humidity: 100%
Pressure (altimeter): 29.71 in. Hg (1006 hPa)
ob: KOSC 232335Z AUTO 33008KT 7SM -RA SCT016 BKN029 OVC050 12/12 A2971 RMK AO2 T01170117 P0005
cycle: 23

Station Type Date Time Source
KOSC TAF UTC NOAA

Error!

Example: see airport list